createdAt,value
2022-12-15T00:00:51.541Z,5.97
2022-12-15T00:04:12.742Z,6.10
2022-12-15T00:07:33.122Z,6.30
2022-12-15T00:10:53.952Z,6.20
2022-12-15T00:14:17.707Z,5.60
2022-12-15T00:17:38.666Z,5.53
2022-12-15T00:20:59.443Z,6.07
2022-12-15T00:24:20.094Z,5.37
2022-12-15T00:27:40.683Z,6.50
2022-12-15T00:31:02.743Z,7.73
2022-12-15T00:34:23.401Z,6.90
2022-12-15T00:37:43.858Z,9.10
2022-12-15T00:40:45.710Z,10.73
2022-12-15T00:43:47.891Z,9.70
2022-12-15T00:46:55.833Z,10.90
2022-12-15T00:50:16.571Z,10.43
2022-12-15T00:53:40.217Z,9.67
2022-12-15T00:57:00.907Z,9.27
2022-12-15T01:00:21.720Z,8.70
2022-12-15T01:03:43.046Z,8.97
2022-12-15T01:07:03.751Z,8.50
2022-12-15T01:10:25.919Z,9.17
2022-12-15T01:13:49.832Z,9.33
2022-12-15T01:17:10.943Z,9.37
2022-12-15T01:20:19.617Z,10.80
2022-12-15T01:23:21.641Z,10.10
2022-12-15T01:26:23.561Z,9.33
2022-12-15T01:29:26.213Z,8.57
2022-12-15T01:32:28.321Z,8.77
2022-12-15T01:35:30.349Z,8.73
2022-12-15T01:38:32.408Z,7.87
2022-12-15T01:41:34.403Z,9.40
2022-12-15T01:44:39.015Z,12.67
2022-12-15T01:47:41.422Z,13.03
2022-12-15T01:50:49.189Z,12.40
2022-12-15T01:54:06.117Z,14.60
2022-12-15T01:57:12.155Z,14.93
2022-12-15T02:00:15.202Z,18.23
2022-12-15T02:03:17.666Z,15.63
2022-12-15T02:06:22.152Z,16.07
2022-12-15T02:09:24.995Z,14.43
2022-12-15T02:12:54.659Z,20.37
2022-12-15T02:16:25.173Z,17.47
2022-12-15T02:19:38.548Z,21.33
2022-12-15T02:23:23.823Z,18.97
2022-12-15T02:26:56.803Z,20.83
2022-12-15T02:30:26.767Z,16.57
2022-12-15T02:33:29.902Z,16.13
2022-12-15T02:36:47.957Z,16.03
2022-12-15T02:39:49.859Z,16.67
2022-12-15T02:42:54.094Z,19.47
2022-12-15T02:46:37.719Z,16.87
2022-12-15T02:49:57.618Z,15.50
2022-12-15T02:53:26.417Z,14.87
2022-12-15T02:56:32.944Z,15.47
2022-12-15T02:59:37.609Z,15.93
2022-12-15T03:02:42.551Z,15.17
2022-12-15T03:05:44.758Z,14.13
2022-12-15T03:08:46.826Z,15.47
2022-12-15T03:11:48.762Z,15.57
2022-12-15T03:14:50.777Z,14.40
2022-12-15T03:17:52.717Z,15.60
2022-12-15T03:20:54.693Z,13.50
2022-12-15T03:23:56.569Z,14.90
2022-12-15T03:26:58.481Z,14.10
2022-12-15T03:30:00.472Z,16.80
2022-12-15T03:33:03.072Z,13.77
2022-12-15T03:36:05.528Z,16.40
2022-12-15T03:39:07.846Z,15.33
2022-12-15T03:42:09.823Z,15.27
2022-12-15T03:45:12.056Z,15.17
2022-12-15T03:48:14.114Z,13.10
2022-12-15T03:51:16.151Z,14.37
2022-12-15T03:54:18.284Z,13.30
2022-12-15T03:57:20.268Z,13.50
2022-12-15T04:00:23.144Z,14.10
2022-12-15T04:03:25.232Z,15.07
2022-12-15T04:06:28.023Z,13.63
2022-12-15T04:09:30.074Z,12.83
2022-12-15T04:12:32.040Z,12.93
2022-12-15T04:15:35.245Z,12.17
2022-12-15T04:18:37.348Z,13.63
2022-12-15T04:21:39.341Z,14.57
2022-12-15T04:24:59.801Z,13.40
2022-12-15T04:28:21.076Z,13.23
2022-12-15T04:31:50.592Z,13.17
2022-12-15T04:35:11.147Z,13.23
2022-12-15T04:38:31.468Z,12.53
2022-12-15T04:41:51.923Z,12.07
2022-12-15T04:45:20.177Z,13.03
2022-12-15T04:48:41.206Z,13.90
2022-12-15T04:52:01.944Z,14.50
2022-12-15T04:55:22.552Z,13.03
2022-12-15T04:58:43.178Z,13.07
2022-12-15T05:02:04.107Z,11.37
2022-12-15T05:05:24.911Z,12.27
2022-12-15T05:08:45.624Z,12.90
2022-12-15T05:12:10.908Z,14.23
2022-12-15T05:15:31.621Z,14.03
2022-12-15T05:18:52.371Z,13.77
2022-12-15T05:22:13.475Z,14.33
2022-12-15T05:25:33.897Z,14.23
2022-12-15T05:28:54.590Z,14.20
2022-12-15T05:31:56.523Z,14.77
2022-12-15T05:34:58.437Z,14.93
2022-12-15T05:38:00.295Z,16.20
2022-12-15T05:41:02.617Z,15.23
2022-12-15T05:44:04.943Z,16.13
2022-12-15T05:47:08.572Z,15.73
2022-12-15T05:50:10.713Z,14.07
2022-12-15T05:53:12.698Z,15.00
2022-12-15T05:56:15.593Z,15.10
2022-12-15T05:59:19.561Z,15.23
2022-12-15T06:02:22.134Z,15.70
2022-12-15T06:05:24.083Z,16.50
2022-12-15T06:08:27.733Z,15.47
2022-12-15T06:11:30.378Z,15.50
2022-12-15T06:14:32.287Z,16.73
2022-12-15T06:17:34.362Z,16.63
2022-12-15T06:20:36.212Z,17.00
2022-12-15T06:23:38.884Z,17.17
2022-12-15T06:26:41.115Z,16.33
2022-12-15T06:29:43.415Z,16.47
2022-12-15T06:32:45.342Z,17.73
2022-12-15T06:35:51.839Z,16.80
2022-12-15T06:38:53.707Z,17.83
2022-12-15T06:41:55.598Z,18.27
2022-12-15T06:44:57.507Z,16.90
2022-12-15T06:48:01.618Z,16.97
2022-12-15T06:51:06.329Z,16.27
2022-12-15T06:54:11.919Z,17.53
2022-12-15T06:57:13.849Z,16.73
2022-12-15T07:00:16.706Z,16.50
2022-12-15T07:03:20.101Z,15.17
2022-12-15T07:06:23.138Z,16.27
2022-12-15T07:09:26.450Z,16.47
2022-12-15T07:12:28.353Z,15.40
2022-12-15T07:15:30.307Z,15.47
2022-12-15T07:18:32.842Z,16.03
2022-12-15T07:21:34.793Z,15.87
2022-12-15T07:24:37.438Z,16.27
2022-12-15T07:27:39.336Z,18.03
2022-12-15T07:30:41.329Z,17.77
2022-12-15T07:33:43.210Z,16.23
2022-12-15T07:36:51.620Z,15.37
2022-12-15T07:39:54.253Z,15.20
2022-12-15T07:42:56.403Z,15.23
2022-12-15T07:45:58.576Z,17.73
2022-12-15T07:49:00.537Z,16.93
2022-12-15T07:52:03.043Z,18.30
2022-12-15T07:55:05.307Z,16.67
2022-12-15T07:58:07.222Z,17.20
2022-12-15T08:01:13.386Z,18.70
2022-12-15T08:04:16.028Z,18.87
2022-12-15T08:07:18.119Z,16.70
2022-12-15T08:10:19.999Z,19.03
2022-12-15T08:14:00.206Z,17.63
2022-12-15T08:16:43.903Z,19.67
2022-12-15T08:19:46.601Z,19.90
2022-12-15T08:22:48.510Z,19.40
2022-12-15T08:25:50.471Z,18.43
2022-12-15T08:28:52.649Z,19.07
2022-12-15T08:31:55.184Z,18.70
2022-12-15T08:34:57.158Z,18.23
2022-12-15T08:38:05.751Z,17.03
2022-12-15T08:41:13.072Z,17.73
2022-12-15T08:44:17.214Z,17.83
2022-12-15T08:47:19.106Z,19.30
2022-12-15T08:50:21.064Z,19.97
2022-12-15T08:53:31.203Z,19.23
2022-12-15T08:56:34.564Z,17.83
2022-12-15T08:59:36.462Z,18.37
2022-12-15T09:02:38.388Z,17.77
2022-12-15T09:05:41.025Z,20.37
2022-12-15T09:08:43.162Z,19.30
2022-12-15T09:11:45.030Z,17.53
2022-12-15T09:14:47.020Z,17.70
2022-12-15T09:17:49.098Z,19.87
2022-12-15T09:20:51.050Z,17.57
2022-12-15T09:23:54.801Z,18.63
2022-12-15T09:26:57.086Z,17.90
2022-12-15T09:29:58.970Z,18.47
2022-12-15T09:33:01.498Z,16.73
2022-12-15T09:36:04.965Z,17.93
2022-12-15T09:39:07.243Z,16.80
2022-12-15T09:42:23.598Z,18.07
2022-12-15T09:45:39.947Z,19.00
2022-12-15T09:48:43.785Z,18.03
2022-12-15T09:52:04.588Z,18.73
2022-12-15T09:55:18.320Z,17.37
2022-12-15T09:58:50.599Z,17.60
2022-12-15T10:02:01.976Z,18.60
2022-12-15T10:05:33.637Z,19.63
2022-12-15T10:09:22.085Z,18.27
2022-12-15T10:12:31.124Z,18.40
2022-12-15T10:15:42.567Z,19.73
2022-12-15T10:19:02.196Z,19.90
2022-12-15T10:22:04.537Z,20.03
2022-12-15T10:29:30.259Z,18.27
2022-12-15T10:32:56.753Z,19.60
2022-12-15T10:35:58.775Z,17.30
2022-12-15T10:39:01.084Z,18.57
2022-12-15T10:42:16.621Z,17.23
2022-12-15T10:45:39.001Z,19.37
2022-12-15T10:48:48.942Z,17.50
2022-12-15T10:52:00.853Z,17.87
2022-12-15T10:55:13.666Z,18.70
2022-12-15T10:58:23.160Z,18.67
2022-12-15T11:01:30.667Z,19.80
2022-12-15T11:04:33.494Z,19.77
2022-12-15T11:07:41.232Z,18.33
2022-12-15T11:11:13.381Z,16.33
2022-12-15T11:14:29.028Z,16.93
2022-12-15T11:17:41.360Z,16.77
2022-12-15T11:20:52.961Z,16.73
2022-12-15T11:24:16.568Z,18.30
2022-12-15T11:27:18.480Z,20.97
2022-12-15T11:30:22.868Z,21.27
2022-12-15T11:33:24.864Z,22.97
2022-12-15T11:37:11.738Z,21.23
2022-12-15T11:40:25.824Z,24.63
2022-12-15T11:43:55.405Z,21.43
2022-12-15T11:47:28.190Z,23.33
2022-12-15T11:50:34.076Z,23.23
2022-12-15T11:54:23.562Z,23.77
2022-12-15T11:57:40.630Z,26.00
2022-12-15T12:00:46.319Z,21.97
2022-12-15T12:04:09.845Z,21.87
2022-12-15T12:07:41.583Z,21.67
2022-12-15T12:11:15.524Z,21.17
2022-12-15T12:14:50.612Z,22.20
2022-12-15T12:17:56.163Z,21.07
2022-12-15T12:21:08.695Z,23.53
2022-12-15T12:24:25.441Z,24.67
2022-12-15T12:27:48.784Z,24.27
2022-12-15T12:30:53.176Z,23.07
2022-12-15T12:34:03.687Z,25.77
2022-12-15T12:37:24.324Z,26.33
2022-12-15T12:40:41.445Z,25.00
2022-12-15T12:43:50.225Z,23.83
2022-12-15T12:46:54.618Z,24.90
2022-12-15T12:50:02.755Z,21.67
2022-12-15T12:53:04.704Z,22.20
2022-12-15T12:56:06.786Z,20.10
2022-12-15T12:59:36.725Z,18.93
2022-12-15T13:02:45.324Z,19.50
2022-12-15T13:05:50.575Z,19.37
2022-12-15T13:08:53.529Z,20.87
2022-12-15T13:12:03.178Z,23.10
2022-12-15T13:15:19.388Z,26.57
2022-12-15T13:18:23.403Z,25.03
2022-12-15T13:21:44.827Z,26.53
2022-12-15T13:24:48.589Z,24.17
2022-12-15T13:27:54.352Z,24.60
2022-12-15T13:31:27.970Z,22.03
2022-12-15T13:34:37.580Z,23.13
2022-12-15T13:37:54.801Z,23.30
2022-12-15T13:40:57.341Z,22.17
2022-12-15T13:44:00.899Z,20.90
2022-12-15T13:47:28.053Z,22.00
2022-12-15T13:50:39.968Z,22.17
2022-12-15T13:54:03.102Z,22.47
2022-12-15T13:57:06.283Z,23.73
2022-12-15T14:00:18.912Z,23.33
2022-12-15T14:03:21.557Z,24.40
2022-12-15T14:06:23.517Z,24.67
2022-12-15T14:09:34.453Z,25.30
2022-12-15T14:12:39.842Z,24.57
2022-12-15T14:15:45.769Z,24.53
2022-12-15T14:19:13.124Z,26.00
2022-12-15T14:26:07.800Z,24.67
2022-12-15T14:29:10.545Z,24.33
2022-12-15T14:32:12.923Z,22.60
2022-12-15T14:35:30.503Z,22.53
2022-12-15T14:38:44.179Z,24.73
2022-12-15T14:41:48.815Z,20.87
2022-12-15T14:44:57.431Z,21.30
2022-12-15T14:51:32.324Z,20.33
2022-12-15T14:54:37.148Z,21.53
2022-12-15T14:57:43.940Z,21.47
2022-12-15T15:00:51.407Z,21.33
2022-12-15T15:03:10.217Z,24.47
2022-12-15T15:03:10.572Z,19.70
2022-12-15T15:04:01.570Z,24.60
2022-12-15T15:07:07.363Z,23.67
2022-12-15T15:10:23.155Z,23.53
2022-12-15T15:13:36.015Z,24.10
2022-12-15T15:16:42.093Z,23.03
2022-12-15T15:19:54.116Z,26.10
2022-12-15T15:23:13.043Z,24.30
2022-12-15T15:26:16.068Z,36.73
2022-12-15T15:29:34.917Z,36.00
2022-12-15T15:32:51.371Z,34.47
2022-12-15T15:35:56.242Z,25.50
2022-12-15T15:38:58.668Z,23.53
2022-12-15T15:42:07.110Z,26.67
2022-12-15T15:45:16.438Z,24.63
2022-12-15T15:48:27.053Z,25.20
2022-12-15T15:51:30.949Z,25.93
2022-12-15T15:54:36.247Z,26.57
2022-12-15T15:57:38.355Z,23.87
2022-12-15T16:00:40.695Z,24.87
2022-12-15T16:03:43.234Z,24.20
2022-12-15T16:06:47.482Z,26.20
2022-12-15T16:09:50.612Z,26.93
2022-12-15T16:12:54.833Z,27.67
2022-12-15T16:15:56.933Z,27.40
2022-12-15T16:18:59.204Z,29.23
2022-12-15T16:22:01.192Z,28.93
2022-12-15T16:25:03.787Z,30.20
2022-12-15T16:28:14.608Z,28.50
2022-12-15T16:31:29.224Z,39.27
2022-12-15T16:34:32.245Z,32.10
2022-12-15T16:37:39.349Z,28.40
2022-12-15T16:40:41.944Z,28.87
2022-12-15T16:43:48.162Z,29.27
2022-12-15T16:46:50.950Z,28.67
2022-12-15T16:49:53.183Z,28.20
2022-12-15T16:52:58.300Z,32.83
2022-12-15T16:56:02.843Z,27.50
2022-12-15T16:59:34.615Z,27.97
2022-12-15T17:02:29.463Z,28.37
2022-12-15T17:05:34.120Z,27.90
2022-12-15T17:08:47.508Z,28.03
2022-12-15T17:11:49.635Z,29.23
2022-12-15T17:14:51.558Z,28.07
2022-12-15T17:17:55.089Z,26.80
2022-12-15T17:21:03.743Z,26.60
2022-12-15T17:24:08.276Z,27.40
2022-12-15T17:27:24.880Z,29.13
2022-12-15T17:30:27.093Z,29.37
2022-12-15T17:33:31.149Z,26.53
2022-12-15T17:36:33.406Z,26.93
2022-12-15T17:39:35.668Z,26.30
2022-12-15T17:42:38.045Z,25.53
2022-12-15T17:45:40.291Z,26.50
2022-12-15T17:48:42.368Z,27.87
2022-12-15T17:51:45.007Z,67.73
2022-12-15T17:54:46.978Z,41.23
2022-12-15T17:57:49.739Z,41.00
2022-12-15T18:00:54.370Z,31.10
2022-12-15T18:03:56.370Z,31.30
2022-12-15T18:07:01.958Z,39.07
2022-12-15T18:10:04.882Z,35.80
2022-12-15T18:13:22.826Z,34.23
2022-12-15T18:16:28.101Z,27.70
2022-12-15T18:19:34.894Z,24.87
2022-12-15T18:22:37.128Z,26.77
2022-12-15T18:25:40.369Z,26.87
2022-12-15T18:28:42.345Z,25.43
2022-12-15T18:31:46.903Z,26.20
2022-12-15T18:34:48.942Z,27.00
2022-12-15T18:37:53.012Z,28.47
2022-12-15T18:40:57.814Z,26.83
2022-12-15T18:44:00.216Z,25.83
2022-12-15T18:47:06.527Z,25.77
2022-12-15T18:50:14.848Z,26.73
2022-12-15T18:53:19.620Z,28.43
2022-12-15T18:56:21.946Z,28.50
2022-12-15T18:59:23.869Z,26.50
2022-12-15T19:02:26.602Z,25.60
2022-12-15T19:05:29.517Z,28.47
2022-12-15T19:08:36.309Z,30.00
2022-12-15T19:11:39.895Z,29.50
2022-12-15T19:14:43.237Z,27.80
2022-12-15T19:18:04.119Z,26.77
2022-12-15T19:21:48.949Z,26.37
2022-12-15T19:24:57.347Z,27.77
2022-12-15T19:28:02.514Z,29.17
2022-12-15T19:31:04.612Z,24.77
2022-12-15T19:34:06.850Z,24.10
2022-12-15T19:37:16.279Z,26.27
2022-12-15T19:40:22.470Z,25.73
2022-12-15T19:43:25.470Z,26.57
2022-12-15T19:46:27.810Z,26.33
2022-12-15T19:49:29.692Z,27.20
2022-12-15T19:52:31.627Z,25.03
2022-12-15T19:55:35.590Z,23.90
2022-12-15T19:58:37.689Z,24.73
2022-12-15T20:01:39.660Z,24.73
2022-12-15T20:04:41.680Z,24.17
2022-12-15T20:07:43.663Z,24.73
2022-12-15T20:10:46.723Z,26.30
2022-12-15T20:13:50.104Z,26.43
2022-12-15T20:16:52.221Z,26.13
2022-12-15T20:19:54.172Z,24.80
2022-12-15T20:22:59.847Z,25.07
2022-12-15T20:26:01.963Z,27.77
2022-12-15T20:29:04.812Z,31.03
2022-12-15T20:32:15.547Z,29.13
2022-12-15T20:35:19.371Z,28.03
2022-12-15T20:38:39.542Z,27.03
2022-12-15T20:41:41.590Z,25.37
2022-12-15T20:44:43.575Z,27.93
2022-12-15T20:47:46.851Z,26.70
2022-12-15T20:50:49.968Z,25.97
2022-12-15T20:53:53.185Z,26.33
2022-12-15T20:56:57.841Z,27.73
2022-12-15T21:00:02.189Z,26.57
2022-12-15T21:03:18.662Z,27.73
2022-12-15T21:06:21.544Z,26.83
2022-12-15T21:09:24.238Z,27.10
2022-12-15T21:12:27.945Z,27.57
2022-12-15T21:15:30.208Z,26.70
2022-12-15T21:21:55.768Z,27.93
2022-12-15T21:24:58.840Z,26.73
2022-12-15T21:28:00.762Z,27.63
2022-12-15T21:31:04.156Z,29.30
2022-12-15T21:34:06.192Z,26.73
2022-12-15T21:37:27.633Z,25.47
2022-12-15T21:40:29.694Z,26.23
2022-12-15T21:43:34.370Z,26.53
2022-12-15T21:46:36.289Z,26.40
2022-12-15T21:49:38.391Z,24.80
2022-12-15T21:52:40.659Z,24.93
2022-12-15T21:55:43.944Z,25.03
2022-12-15T21:58:49.133Z,25.10
2022-12-15T22:01:52.076Z,24.87
2022-12-15T22:04:55.216Z,23.90
2022-12-15T22:08:15.039Z,24.20
2022-12-15T22:11:22.883Z,25.93
2022-12-15T22:14:26.817Z,28.27
2022-12-15T22:17:29.224Z,27.87
2022-12-15T22:20:31.379Z,26.33
2022-12-15T22:23:34.654Z,27.47
2022-12-15T22:26:37.793Z,27.93
2022-12-15T22:29:39.725Z,29.47
2022-12-15T22:32:48.296Z,26.70
2022-12-15T22:35:52.183Z,27.67
2022-12-15T22:38:54.425Z,27.77
2022-12-15T22:41:57.007Z,32.77
2022-12-15T22:44:59.342Z,27.47
2022-12-15T22:48:03.159Z,27.93
2022-12-15T22:51:06.599Z,30.63
2022-12-15T22:54:26.654Z,28.63
2022-12-15T22:57:28.955Z,28.03
2022-12-15T23:00:30.845Z,28.73
2022-12-15T23:03:34.687Z,28.47
2022-12-15T23:06:36.977Z,27.07
2022-12-15T23:09:38.975Z,26.57
2022-12-15T23:12:40.955Z,26.77
2022-12-15T23:16:01.573Z,27.40
2022-12-15T23:19:04.624Z,25.43
2022-12-15T23:22:06.872Z,24.43
2022-12-15T23:25:09.541Z,23.53
2022-12-15T23:28:11.540Z,22.83
2022-12-15T23:31:14.020Z,24.13
2022-12-15T23:34:15.946Z,25.27
2022-12-15T23:37:18.158Z,25.97
2022-12-15T23:40:22.349Z,25.43
2022-12-15T23:43:26.669Z,26.20
2022-12-15T23:46:28.621Z,29.57
2022-12-15T23:49:30.815Z,26.63
2022-12-15T23:52:32.753Z,26.27
2022-12-15T23:55:36.054Z,30.57
2022-12-15T23:58:39.617Z,31.77
